Time;durP1;ratioP1;P1;durP2;ratioP2;P2;SDS_P1;SDS_P2;PMS_P1;PMS_P2;Temp;Humidity;BMP_temperature;BMP_pressure;BME280_temperature;BME280_humidity;BME280_pressure;Samples;Min_cycle;Max_cycle;Signal;HPM_P1;HPM_P2
2022/10/26 00:03:50;;;;;;;6.93;3.75;;;;;;;13.74;62.94;100254.19;7694249;32;38826;-82
2022/10/26 00:08:07;;;;;;;7.25;3.45;;;;;;;13.68;63.45;100266.28;7708682;32;37127;-82
2022/10/26 00:12:24;;;;;;;9.40;3.10;;;;;;;13.77;62.29;100248.16;7705414;32;39108;-82
2022/10/26 00:16:40;;;;;;;8.93;4.20;;;;;;;13.86;62.08;100262.09;7688470;32;40105;-82
2022/10/26 00:21:01;;;;;;;7.60;3.45;;;;;;;13.63;62.46;100263.56;7690216;32;38791;-82
2022/10/26 00:25:17;;;;;;;8.35;3.85;;;;;;;13.74;62.11;100259.69;7696668;32;37808;-83
2022/10/26 00:29:33;;;;;;;6.62;3.65;;;;;;;13.40;63.40;100260.38;7696654;32;39404;-81
2022/10/26 00:33:54;;;;;;;7.22;3.45;;;;;;;13.55;63.28;100261.41;7708778;32;40762;-82
2022/10/26 00:38:10;;;;;;;4.68;3.00;;;;;;;13.80;62.61;100258.56;7709565;32;38787;-82
2022/10/26 00:42:26;;;;;;;8.05;3.50;;;;;;;13.66;62.63;100252.03;7688289;32;37832;-82
2022/10/26 00:46:42;;;;;;;7.80;3.12;;;;;;;13.50;63.14;100254.88;7707106;32;39544;-82
2022/10/26 00:51:01;;;;;;;10.43;3.45;;;;;;;13.42;63.70;100255.44;7687169;32;40747;-83
2022/10/26 00:55:20;;;;;;;6.20;3.08;;;;;;;13.09;64.97;100256.84;7697618;32;37544;-82
2022/10/26 00:59:36;;;;;;;9.88;3.67;;;;;;;13.07;64.35;100253.56;7703313;32;37221;-82
2022/10/26 01:03:52;;;;;;;6.45;3.30;;;;;;;13.50;62.58;100254.88;7691483;32;40166;-81
2022/10/26 01:08:09;;;;;;;6.55;3.45;;;;;;;13.55;62.47;100247.72;7686827;32;39644;-82
2022/10/26 01:12:25;;;;;;;7.35;3.75;;;;;;;13.10;64.98;100247.56;7689266;32;38029;-83
2022/10/26 01:16:47;;;;;;;10.48;3.85;;;;;;;13.09;65.40;100260.44;7688103;32;36781;-81
2022/10/26 01:21:07;;;;;;;11.12;3.50;;;;;;;13.10;64.90;100264.78;7686950;32;39275;-82
2022/10/26 01:25:50;;;;;;;8.43;3.60;;;;;;;12.84;63.83;100258.53;7695087;32;40552;-82
2022/10/26 01:30:34;;;;;;;7.03;3.50;;;;;;;12.98;63.39;100252.50;7685698;32;37920;-81
2022/10/26 01:35:03;;;;;;;11.95;3.60;;;;;;;13.03;62.75;100245.09;7689225;32;39410;-81
2022/10/26 01:39:53;;;;;;;8.13;3.40;;;;;;;13.19;62.13;100245.06;7685584;32;39330;-81
2022/10/26 01:44:48;;;;;;;12.00;3.90;;;;;;;13.20;62.92;100231.09;7687602;32;40011;-81
2022/10/26 01:49:10;;;;;;;8.65;4.20;;;;;;;12.94;64.57;100227.63;7710708;32;37988;-81
2022/10/26 01:53:30;;;;;;;10.88;4.12;;;;;;;12.83;65.47;100239.66;7707447;32;37597;-82
2022/10/26 01:57:50;;;;;;;9.63;3.45;;;;;;;12.91;64.99;100226.25;7696219;32;39440;-82
2022/10/26 02:02:48;;;;;;;7.43;3.47;;;;;;;12.92;64.17;100235.28;7697353;32;40025;-82
2022/10/26 02:07:35;;;;;;;7.72;2.87;;;;;;;13.05;63.30;100244.81;7699432;32;38834;-82
2022/10/26 02:11:52;;;;;;;8.68;3.08;;;;;;;13.20;62.69;100238.50;7679171;32;37109;-83
2022/10/26 02:16:36;;;;;;;8.73;3.33;;;;;;;13.20;62.98;100230.28;7683865;32;39213;-82
2022/10/26 02:20:56;;;;;;;5.47;2.90;;;;;;;13.17;63.51;100222.63;7686022;32;39634;-81
2022/10/26 02:25:22;;;;;;;6.70;3.30;;;;;;;13.09;64.66;100226.75;7697108;32;38564;-82
2022/10/26 02:29:40;;;;;;;6.55;3.00;;;;;;;13.00;65.33;100217.47;7680823;32;38062;-81
2022/10/26 02:33:58;;;;;;;7.53;3.45;;;;;;;13.23;64.19;100221.50;7669029;32;39390;-82
2022/10/26 02:38:16;;;;;;;7.85;3.58;;;;;;;13.11;64.31;100217.16;7683545;32;40511;-83
2022/10/26 02:42:33;;;;;;;6.30;3.47;;;;;;;12.95;65.03;100221.88;7679342;32;38459;-82
2022/10/26 02:46:50;;;;;;;7.40;3.60;;;;;;;12.87;65.73;100233.37;7917176;27;37133;-82
2022/10/26 02:51:28;;;;;;;5.87;3.60;;;;;;;12.34;65.63;100232.84;7737925;32;39134;-82
2022/10/26 02:55:49;;;;;;;16.98;5.70;;;;;;;12.53;64.65;100224.94;7717755;32;38330;-82
2022/10/26 03:00:15;;;;;;;6.45;4.12;;;;;;;12.47;65.38;100226.84;7738421;32;38811;-82
2022/10/26 03:04:33;;;;;;;8.60;4.95;;;;;;;12.75;65.41;100230.91;7738407;32;37302;-82
2022/10/26 03:08:49;;;;;;;7.80;4.05;;;;;;;12.69;66.37;100229.28;7709788;32;40089;-83
2022/10/26 03:13:05;;;;;;;17.75;5.72;;;;;;;12.67;65.07;100230.66;7710286;32;39908;-83
2022/10/26 03:17:21;;;;;;;13.55;5.95;;;;;;;12.35;65.61;100234.50;7728791;32;38693;-82
2022/10/26 03:21:38;;;;;;;7.28;4.30;;;;;;;12.70;65.08;100230.94;7738106;32;37134;-82
2022/10/26 03:26:00;;;;;;;7.47;4.18;;;;;;;13.00;64.34;100240.19;7738065;32;39292;-82
2022/10/26 03:30:16;;;;;;;8.60;3.95;;;;;;;12.74;65.29;100229.28;7738358;32;40845;-82
2022/10/26 03:34:32;;;;;;;10.07;4.15;;;;;;;13.02;64.33;100238.00;7738026;32;38083;-83
2022/10/26 03:38:48;;;;;;;8.90;4.68;;;;;;;12.95;65.36;100238.28;7738022;32;37228;-83
2022/10/26 03:43:04;;;;;;;9.77;4.35;;;;;;;12.43;66.88;100246.81;7738021;32;39059;-83
2022/10/26 03:47:20;;;;;;;8.80;4.35;;;;;;;12.24;66.66;100238.31;7737618;32;40513;-83
2022/10/26 03:51:36;;;;;;;9.60;4.22;;;;;;;11.94;68.25;100259.84;7737557;32;38488;-83
2022/10/26 03:55:53;;;;;;;7.45;4.25;;;;;;;11.75;67.72;100256.75;7737732;32;38075;-83
2022/10/26 04:00:16;;;;;;;5.90;3.62;;;;;;;11.90;67.39;100257.87;7737668;32;40023;-84
2022/10/26 04:04:32;;;;;;;;;;;;;;;12.52;65.36;100250.63;7737831;32;39961;-83
2022/10/26 04:08:48;;;;;;;8.30;4.20;;;;;;;12.56;65.87;100262.69;7737561;32;39505;-83
2022/10/26 04:13:04;;;;;;;8.95;4.50;;;;;;;12.33;66.59;100264.84;7737409;32;36944;-83
2022/10/26 04:17:20;;;;;;;5.85;3.78;;;;;;;12.26;66.25;100269.75;7723536;32;39797;-83
2022/10/26 04:21:37;;;;;;;6.00;3.35;;;;;;;12.72;64.62;100271.69;7739212;32;40735;-83
2022/10/26 04:25:53;;;;;;;6.65;3.25;;;;;;;12.75;64.64;100261.00;7745954;32;37924;-82
2022/10/26 04:30:09;;;;;;;8.40;4.15;;;;;;;12.51;65.97;100270.87;7745929;32;37172;-83
2022/10/26 04:34:25;;;;;;;8.95;3.97;;;;;;;12.85;65.78;100273.88;7745735;32;39356;-82
2022/10/26 04:38:42;;;;;;;6.72;3.90;;;;;;;12.74;66.32;100262.09;7745588;32;39974;-83
2022/10/26 04:42:58;;;;;;;5.68;3.90;;;;;;;12.48;66.63;100268.69;7745443;32;38017;-83
2022/10/26 04:47:14;;;;;;;10.60;3.97;;;;;;;12.46;66.27;100263.47;7745311;32;37088;-83
2022/10/26 04:51:30;;;;;;;9.65;4.32;;;;;;;12.56;65.30;100268.13;7745361;32;39351;-83
2022/10/26 04:55:46;;;;;;;6.20;4.05;;;;;;;12.11;66.58;100272.47;7745383;32;39740;-83
2022/10/26 05:00:04;;;;;;;8.93;4.15;;;;;;;12.34;65.60;100263.75;7745195;32;37677;-84
2022/10/26 05:04:20;;;;;;;7.22;4.05;;;;;;;12.36;65.59;100247.88;7745077;32;37080;-83
2022/10/26 05:08:36;;;;;;;9.23;4.10;;;;;;;12.42;65.57;100258.81;7745061;32;40127;-83
2022/10/26 05:12:56;;;;;;;8.73;4.32;;;;;;;11.60;67.61;100262.97;7744970;32;39949;-83
2022/10/26 05:17:13;;;;;;;8.00;3.97;;;;;;;11.90;65.82;100269.66;7731108;32;38662;-83
2022/10/26 05:21:29;;;;;;;7.37;4.10;;;;;;;11.90;65.34;100266.09;7744649;32;37274;-84
2022/10/26 05:25:46;;;;;;;10.13;4.28;;;;;;;11.86;64.88;100271.25;7744468;32;39335;-82
2022/10/26 05:30:02;;;;;;;7.60;4.00;;;;;;;11.83;64.73;100271.78;7744385;32;40717;-83
2022/10/26 05:34:18;;;;;;;8.40;4.22;;;;;;;11.63;65.33;100267.09;7740880;32;37670;-84
2022/10/26 05:38:35;;;;;;;9.70;4.60;;;;;;;12.02;64.05;100273.00;7739459;32;37603;-84
2022/10/26 05:42:51;;;;;;;11.55;4.72;;;;;;;12.12;64.34;100279.56;7739015;32;40053;-86
2022/10/26 05:47:07;;;;;;;6.90;3.87;;;;;;;12.20;65.52;100277.13;7739125;32;40006;-75
2022/10/26 05:51:24;;;;;;;5.87;3.75;;;;;;;12.62;71.85;100282.62;7739070;32;38645;-78
2022/10/26 05:55:40;;;;;;;8.65;3.85;;;;;;;12.95;69.89;100284.81;7739190;32;37743;-86
2022/10/26 05:59:57;;;;;;;11.05;4.20;;;;;;;12.79;62.93;100291.37;7739873;32;39703;-86
2022/10/26 06:04:46;;;;;;;13.13;3.78;;;;;;;12.46;62.67;100295.47;7739145;32;40898;-86
2022/10/26 06:09:03;;;;;;;9.45;4.28;;;;;;;12.58;62.41;100298.78;7739048;32;38491;-85
2022/10/26 06:13:20;;;;;;;6.53;4.10;;;;;;;12.24;63.27;100296.53;7725393;32;37789;-85
2022/10/26 06:18:00;;;;;;;8.32;3.90;;;;;;;12.13;63.60;100298.44;7738981;32;39104;-86
2022/10/26 06:22:58;;;;;;;7.55;4.72;;;;;;;12.16;63.56;100295.16;7739332;32;39568;-85
2022/10/26 06:27:38;;;;;;;7.85;4.30;;;;;;;12.14;64.08;100300.09;7738660;32;38128;-85
2022/10/26 06:31:54;;;;;;;8.40;4.18;;;;;;;12.19;64.14;100302.00;7738851;32;37840;-86
2022/10/26 06:36:26;;;;;;;36.90;4.62;;;;;;;12.49;63.34;100303.16;7738792;32;39835;-85
2022/10/26 06:40:44;;;;;;;90.03;7.18;;;;;;;11.89;65.85;100308.97;7738627;32;40840;-85
2022/10/26 06:45:01;;;;;;;54.40;5.32;;;;;;;11.17;68.35;100325.00;7724761;32;38200;-85
2022/10/26 06:49:38;;;;;;;90.53;6.78;;;;;;;11.58;67.92;100319.78;7738338;32;37484;-83
2022/10/26 06:54:24;;;;;;;30.42;4.60;;;;;;;11.73;67.25;100320.91;7738547;32;39850;-83
2022/10/26 06:58:40;;;;;;;22.15;4.10;;;;;;;11.93;67.40;100326.50;7738392;32;39895;-85
2022/10/26 07:02:57;;;;;;;62.45;5.00;;;;;;;12.21;66.93;100319.78;7738336;32;37871;-84
2022/10/26 07:07:16;;;;;;;24.90;4.18;;;;;;;12.24;67.10;100321.13;7738176;32;37157;-85
2022/10/26 07:11:33;;;;;;;67.28;5.82;;;;;;;12.32;67.19;100323.34;7724705;32;39279;-84
2022/10/26 07:15:49;;;;;;;47.17;5.50;;;;;;;12.64;66.72;100325.03;7737999;32;39916;-84
2022/10/26 07:20:05;;;;;;;42.62;4.90;;;;;;;12.86;65.50;100326.69;7737955;32;38714;-84
2022/10/26 07:24:22;;;;;;;28.52;5.05;;;;;;;12.91;65.32;100329.41;7737904;32;37168;-84
2022/10/26 07:28:39;;;;;;;15.00;4.57;;;;;;;12.68;66.81;100331.59;7737897;32;39015;-83
2022/10/26 07:33:03;;;;;;;155.63;9.45;;;;;;;13.19;65.17;100327.19;7737847;32;39863;-84
2022/10/26 07:37:19;;;;;;;240.05;11.75;;;;;;;11.70;69.88;100343.34;7737762;32;38081;-83
2022/10/26 07:41:35;;;;;;;108.78;8.13;;;;;;;11.27;71.36;100340.62;7737681;32;37274;-82
2022/10/26 07:45:52;;;;;;;86.43;7.53;;;;;;;12.30;68.96;100341.94;7737681;32;39365;-83
2022/10/26 07:50:10;;;;;;;84.28;8.07;;;;;;;12.12;69.73;100339.69;7737396;32;39781;-84
2022/10/26 07:54:26;;;;;;;130.63;9.68;;;;;;;12.67;68.40;100338.16;7737638;32;37334;-83
2022/10/26 07:58:43;;;;;;;211.62;11.40;;;;;;;12.05;70.06;100355.53;7730578;32;36940;-82
2022/10/26 08:02:59;;;;;;;106.10;8.80;;;;;;;12.05;70.67;100344.59;7710453;32;40222;-82
2022/10/26 08:07:15;;;;;;;49.28;6.35;;;;;;;12.71;68.80;100347.47;7710410;32;39907;-85
2022/10/26 08:11:32;;;;;;;67.10;7.07;;;;;;;12.90;68.12;100346.91;7710270;32;38904;-85
2022/10/26 08:15:48;;;;;;;277.85;15.40;;;;;;;12.32;71.42;100355.34;7710369;32;37242;-85
2022/10/26 08:20:04;;;;;;;540.22;28.20;;;;;;;11.77;72.45;100357.56;7710138;32;40161;-84
2022/10/26 08:24:20;;;;;;;77.93;8.80;;;;;;;11.83;72.36;100351.84;7709964;32;39592;-80
2022/10/26 08:28:37;;;;;;;128.62;10.30;;;;;;;12.95;70.02;100352.37;7709965;32;37729;-83
2022/10/26 08:33:05;;;;;;;66.93;9.18;;;;;;;12.83;70.69;100357.31;7709794;32;37312;-73
2022/10/26 08:37:21;;;;;;;22.33;7.60;;;;;;;12.95;70.22;100346.91;7709855;32;40102;-82
2022/10/26 08:41:43;;;;;;;34.17;7.47;;;;;;;13.72;69.46;100346.81;7709630;32;39891;-82
2022/10/26 08:46:08;;;;;;;9.75;6.20;;;;;;;13.93;66.75;100341.25;7696243;32;37888;-82
2022/10/26 08:50:51;;;;;;;8.60;5.75;;;;;;;14.28;66.13;100357.53;7709293;32;37923;-82
2022/10/26 08:55:13;;;;;;;8.95;5.30;;;;;;;14.68;64.75;100354.03;7696505;32;39343;-82
2022/10/26 08:59:51;;;;;;;12.20;7.28;;;;;;;15.00;64.08;100340.62;7696142;32;39967;-82
2022/10/26 09:04:11;;;;;;;15.82;5.62;;;;;;;14.58;65.54;100354.91;7696487;32;39045;-83
2022/10/26 09:08:59;;;;;;;9.75;5.40;;;;;;;14.26;66.19;100348.78;7696741;32;37791;-82
2022/10/26 09:13:32;;;;;;;11.30;7.03;;;;;;;13.73;67.97;100358.59;7712850;32;39333;-81
2022/10/26 09:18:00;;;;;;;9.35;6.15;;;;;;;14.53;66.67;100352.19;7699394;32;40554;-83
2022/10/26 09:22:21;;;;;;;14.13;8.32;;;;;;;14.36;66.73;100347.06;7712649;32;38502;-82
2022/10/26 09:26:49;;;;;;;10.13;6.32;;;;;;;15.24;63.80;100358.25;7691856;32;241010;-82
2022/10/26 09:31:08;;;;;;;12.60;7.25;;;;;;;16.29;62.12;100352.94;7712737;32;39274;-82
2022/10/26 09:35:45;;;;;;;12.35;6.62;;;;;;;15.82;62.52;100355.47;7712667;32;40053;-82
2022/10/26 09:40:13;;;;;;;9.93;5.93;;;;;;;15.97;61.00;100351.72;7712430;32;38675;-82
2022/10/26 09:44:53;;;;;;;8.93;5.15;;;;;;;16.15;60.43;100359.16;7712500;32;37285;-82
2022/10/26 09:49:11;;;;;;;9.98;5.10;;;;;;;17.00;60.01;100366.75;7699335;32;39267;-83
2022/10/26 09:53:28;;;;;;;9.82;5.30;;;;;;;16.89;60.41;100358.66;7712318;32;39940;-83
2022/10/26 09:57:50;;;;;;;12.15;5.28;;;;;;;17.25;60.37;100366.31;7712287;32;37929;-84
2022/10/26 10:02:34;;;;;;;8.07;4.65;;;;;;;17.13;59.73;100371.50;7712226;32;37851;-84
2022/10/26 10:07:03;;;;;;;9.43;4.90;;;;;;;16.91;61.14;100360.31;7711948;32;39359;-83
2022/10/26 10:11:19;;;;;;;9.23;5.47;;;;;;;17.04;61.10;100362.28;7711193;32;40047;-84
2022/10/26 10:15:36;;;;;;;9.10;4.53;;;;;;;17.04;61.77;100362.28;7712215;32;38692;-85
2022/10/26 10:19:52;;;;;;;10.50;5.55;;;;;;;17.46;60.43;100355.75;7711872;32;37023;-85
2022/10/26 10:24:31;;;;;;;10.07;4.87;;;;;;;17.41;60.28;100361.34;7708806;32;40224;-84
2022/10/26 10:28:59;;;;;;;8.55;4.80;;;;;;;17.90;59.40;100359.09;7708862;32;40716;-85
2022/10/26 10:33:15;;;;;;;12.45;5.50;;;;;;;18.11;57.66;100355.87;7710106;32;37939;-85
2022/10/26 10:37:37;;;;;;;10.50;5.25;;;;;;;17.55;58.53;100358.59;7711086;32;37028;-85
2022/10/26 10:41:53;;;;;;;8.93;5.10;;;;;;;17.89;58.15;100356.63;7712074;32;39407;-85
2022/10/26 10:46:16;;;;;;;8.73;5.47;;;;;;;17.83;58.35;100358.63;7698073;32;39845;-84
2022/10/26 10:55:54;;;;;;;8.10;5.05;;;;;;;18.44;58.34;100347.41;7711794;32;37768;-85
2022/10/26 11:00:11;;;;;;;8.68;4.10;;;;;;;18.77;58.04;100335.03;7711716;32;39356;-85
2022/10/26 11:04:43;;;;;;;10.23;5.35;;;;;;;19.31;58.28;100342.56;7697947;32;40883;-84
2022/10/26 11:09:06;;;;;;;6.80;4.20;;;;;;;19.67;55.74;100336.06;7711488;32;37792;-84
2022/10/26 11:13:24;;;;;;;;;;;;;;;19.96;55.24;100330.00;7686092;32;37248;-84
2022/10/26 11:18:12;;;;;;;4.07;2.60;;;;;;;20.04;51.67;100326.44;7711828;32;39450;-84
2022/10/26 11:22:36;;;;;;;8.85;2.30;;;;;;;20.15;49.51;100323.38;7711520;32;39544;-84
2022/10/26 11:27:19;;;;;;;5.25;2.25;;;;;;;20.42;49.64;100322.22;7697919;32;37941;-84
2022/10/26 11:31:42;;;;;;;5.83;2.77;;;;;;;19.50;50.88;100332.06;7698315;32;37148;-85
2022/10/26 11:36:12;;;;;;;7.75;2.72;;;;;;;20.92;49.45;100319.00;7698332;32;40048;-84
2022/10/26 11:41:00;;;;;;;4.03;2.25;;;;;;;20.68;46.31;100319.50;7698900;32;40050;-85
2022/10/26 11:45:41;;;;;;;3.85;1.77;;;;;;;20.42;47.60;100330.53;7711020;32;38462;-84
2022/10/26 11:50:05;;;;;;;5.90;2.17;;;;;;;20.01;47.69;100337.34;7699647;32;37048;-84
2022/10/26 11:54:34;;;;;;;4.85;1.92;;;;;;;19.52;48.37;100327.06;7710911;32;39520;-85
2022/10/26 11:58:51;;;;;;;4.00;2.17;;;;;;;20.13;47.14;100323.69;7710967;32;40625;-84
2022/10/26 12:03:10;;;;;;;23.35;9.63;;;;;;;19.68;44.80;100324.69;7710993;32;38788;-84
2022/10/26 12:07:31;;;;;;;13.93;5.03;;;;;;;19.57;45.09;100328.84;7697269;32;37126;-84
2022/10/26 12:11:57;;;;;;;9.43;3.65;;;;;;;19.45;45.58;100334.97;7684688;32;40164;-83
2022/10/26 12:16:32;;;;;;;3.92;1.80;;;;;;;18.51;47.32;100339.56;7697642;32;39955;-83
2022/10/26 12:20:50;;;;;;;3.17;1.40;;;;;;;18.52;47.44;100346.69;7710392;32;38719;-83
2022/10/26 12:25:15;;;;;;;1.83;1.35;;;;;;;18.00;48.77;100353.31;7710238;32;37848;-83
2022/10/26 12:29:35;;;;;;;3.33;1.48;;;;;;;18.17;48.42;100343.62;7710343;32;40049;-83
2022/10/26 12:33:52;;;;;;;2.58;1.60;;;;;;;18.47;49.06;100352.31;7696714;32;39917;-83
2022/10/26 12:38:23;;;;;;;4.70;1.90;;;;;;;18.66;48.09;100349.41;7709927;32;38894;-84
2022/10/26 12:42:42;;;;;;;4.78;1.58;;;;;;;18.28;49.20;100338.69;7710805;32;38136;-83
2022/10/26 12:46:58;;;;;;;2.62;1.73;;;;;;;18.50;49.67;100344.25;7699179;32;39260;-83
2022/10/26 12:51:17;;;;;;;4.93;1.70;;;;;;;18.25;50.69;100342.88;7713230;32;40578;-83
2022/10/26 12:55:48;;;;;;;6.75;2.67;;;;;;;18.02;51.47;100347.50;7712993;32;38677;-84
2022/10/26 13:00:11;;;;;;;2.80;1.77;;;;;;;18.61;50.35;100347.59;7713026;32;37634;-84
2022/10/26 13:04:27;;;;;;;;;;;;;;;18.76;49.76;100338.94;7700415;32;39393;-83
2022/10/26 13:08:47;;;;;;;4.35;2.20;;;;;;;19.31;49.06;100334.25;7712967;32;40164;-84
2022/10/26 13:13:06;;;;;;;3.95;2.35;;;;;;;19.82;48.73;100324.59;7699382;32;38818;-84
2022/10/26 13:17:28;;;;;;;4.90;1.92;;;;;;;19.68;48.55;100312.81;7712712;32;36043;-84
2022/10/26 13:21:47;;;;;;;5.18;2.00;;;;;;;19.51;49.20;100325.41;7699317;32;39401;-84
2022/10/26 13:26:16;;;;;;;8.73;2.35;;;;;;;20.35;46.84;100316.38;7699276;32;40801;-85
2022/10/26 13:30:45;;;;;;;6.50;2.03;;;;;;;20.38;46.67;100321.25;7699780;32;38717;-84
2022/10/26 13:35:02;;;;;;;4.55;2.62;;;;;;;21.71;44.09;100322.34;7712626;32;37757;-84
2022/10/26 13:39:54;;;;;;;4.05;2.17;;;;;;;21.34;44.28;100335.03;7712697;32;40111;-85
2022/10/26 13:44:21;;;;;;;6.68;2.87;;;;;;;20.24;46.41;100335.25;7688080;32;40528;-84
2022/10/26 13:48:44;;;;;;;7.80;2.45;;;;;;;20.46;46.87;100331.53;7699792;32;37789;-84
2022/10/26 13:53:12;;;;;;;5.45;2.25;;;;;;;20.53;46.53;100326.31;7699253;32;36744;-84
2022/10/26 13:57:38;;;;;;;9.65;3.87;;;;;;;19.97;47.80;100331.63;7699599;32;39384;-83
2022/10/26 14:02:22;;;;;;;4.95;3.05;;;;;;;19.67;49.01;100338.81;7699023;32;39375;-84
2022/10/26 14:06:39;;;;;;;7.82;3.30;;;;;;;19.46;49.30;100328.31;7712224;32;37860;-84
2022/10/26 14:10:58;;;;;;;5.05;2.45;;;;;;;20.55;47.80;100314.91;7712301;32;36967;-84
2022/10/26 14:15:22;;;;;;;7.60;3.08;;;;;;;20.57;46.25;100330.06;7698778;32;39321;-84
2022/10/26 14:19:40;;;;;;;4.00;2.42;;;;;;;20.71;47.20;100329.09;7699566;32;40153;-84
2022/10/26 14:24:06;;;;;;;6.03;2.90;;;;;;;20.47;47.17;100327.59;7712030;32;38051;-85
2022/10/26 14:28:27;;;;;;;6.20;2.80;;;;;;;19.84;48.30;100325.06;7699333;32;37124;-84
2022/10/26 14:32:44;;;;;;;8.15;2.97;;;;;;;20.04;48.24;100343.03;7698940;32;40084;-84
2022/10/26 14:37:03;;;;;;;8.02;3.80;;;;;;;20.47;48.37;100327.59;7712014;32;40739;-85
2022/10/26 14:41:20;;;;;;;9.25;3.35;;;;;;;20.36;47.58;100327.12;7698263;32;37865;-84
2022/10/26 14:45:38;;;;;;;6.40;2.75;;;;;;;20.10;48.85;100332.63;7698657;32;37642;-84
2022/10/26 14:50:20;;;;;;;8.07;2.60;;;;;;;19.84;50.05;100343.62;7699466;32;39245;-84
2022/10/26 14:54:37;;;;;;;10.65;5.75;;;;;;;19.81;50.15;100349.81;7698201;32;41886;-84
2022/10/26 14:58:54;;;;;;;5.57;2.70;;;;;;;20.20;48.18;100346.16;7697954;32;38800;-84
2022/10/26 15:03:15;;;;;;;5.53;2.90;;;;;;;19.67;49.61;100342.41;7698432;32;37857;-84
2022/10/26 15:07:36;;;;;;;6.25;2.70;;;;;;;19.65;49.57;100352.16;7697918;32;39315;-85
2022/10/26 15:11:52;;;;;;;6.72;2.72;;;;;;;19.58;49.97;100351.81;7698050;32;40842;-85
2022/10/26 15:16:24;;;;;;;7.15;3.30;;;;;;;19.73;49.50;100356.91;7697821;32;38484;-85
2022/10/26 15:20:48;;;;;;;6.15;3.70;;;;;;;19.23;51.31;100357.97;7711662;32;37055;-84
2022/10/26 15:25:04;;;;;;;16.37;8.35;;;;;;;19.17;51.91;100364.75;7697999;32;39389;-84
2022/10/26 15:29:43;;;;;;;6.37;2.65;;;;;;;19.11;51.82;100368.78;7697709;32;40471;-84
2022/10/26 15:34:11;;;;;;;9.57;5.80;;;;;;;19.12;51.60;100368.44;7711167;32;38952;-84
2022/10/26 15:38:27;;;;;;;6.03;2.90;;;;;;;18.96;52.50;100378.28;7698091;32;37206;-84
2022/10/26 15:42:54;;;;;;;6.03;3.08;;;;;;;18.92;52.79;100386.37;7697791;32;38652;-82
2022/10/26 15:47:17;;;;;;;5.22;2.50;;;;;;;18.58;53.63;100387.69;7710982;32;39444;-83
2022/10/26 15:51:33;;;;;;;7.75;3.12;;;;;;;18.68;53.49;100388.56;7711201;32;38773;-83
2022/10/26 15:55:51;;;;;;;5.50;2.87;;;;;;;18.44;54.35;100380.53;7711023;32;36989;-84
2022/10/26 16:00:13;;;;;;;6.00;2.60;;;;;;;18.39;54.40;100384.25;7697482;32;39412;-83
2022/10/26 16:04:29;;;;;;;8.27;3.60;;;;;;;18.60;53.85;100392.91;7710824;32;40792;-83
2022/10/26 16:08:49;;;;;;;10.10;4.45;;;;;;;18.72;53.64;100393.16;7710696;32;38028;-83
2022/10/26 16:13:11;;;;;;;8.93;3.25;;;;;;;18.82;53.52;100407.88;7697442;32;37270;-83
2022/10/26 16:17:27;;;;;;;6.72;3.00;;;;;;;18.51;54.26;100405.81;7696866;32;39165;-84
2022/10/26 16:21:43;;;;;;;15.52;4.50;;;;;;;18.63;54.29;100410.78;7710443;32;40868;-83
2022/10/26 16:26:02;;;;;;;8.93;3.37;;;;;;;18.94;53.70;100416.44;7696620;32;37917;-83
2022/10/26 16:30:19;;;;;;;7.30;2.80;;;;;;;18.78;53.90;100415.94;7710329;32;36856;-84
2022/10/26 16:34:35;;;;;;;6.10;3.05;;;;;;;18.94;53.97;100427.50;7696640;32;39348;-84
2022/10/26 16:38:52;;;;;;;7.45;2.97;;;;;;;18.76;54.42;100432.84;7710008;32;40683;-83
2022/10/26 16:43:08;;;;;;;5.60;2.53;;;;;;;18.57;55.06;100435.75;7709909;32;37853;-83
2022/10/26 16:47:25;;;;;;;6.80;3.20;;;;;;;18.53;55.18;100431.97;7709605;32;37792;-83
2022/10/26 16:51:42;;;;;;;7.45;3.62;;;;;;;18.37;55.83;100439.78;7709672;32;40161;-83
2022/10/26 16:56:06;;;;;;;6.72;3.35;;;;;;;18.12;56.50;100441.09;7709160;32;40024;-81
2022/10/26 17:00:22;;;;;;;8.30;3.95;;;;;;;18.23;56.59;100450.00;7719188;32;37636;-85
2022/10/26 17:04:38;;;;;;;8.55;4.90;;;;;;;18.15;57.25;100450.72;7722246;32;37984;-85
2022/10/26 17:08:55;;;;;;;11.98;5.43;;;;;;;17.97;57.90;100450.50;7736137;32;39161;-86
2022/10/26 17:13:11;;;;;;;14.57;8.15;;;;;;;18.18;57.34;100450.13;7735885;32;39866;-85
2022/10/26 17:17:28;;;;;;;17.60;8.90;;;;;;;17.93;58.36;100466.03;7735715;32;38737;-84
2022/10/26 17:21:44;;;;;;;14.87;7.95;;;;;;;18.08;58.13;100470.44;7722026;32;37109;-86
2022/10/26 17:26:02;;;;;;;17.75;8.27;;;;;;;17.95;58.86;100480.31;7707385;32;39516;-88
2022/10/26 17:30:18;;;;;;;12.65;7.72;;;;;;;17.99;58.84;100486.88;7709102;32;39996;-88
2022/10/26 17:34:34;;;;;;;14.30;8.25;;;;;;;17.98;59.83;100492.69;7722197;32;37984;-86
2022/10/26 17:38:52;;;;;;;17.00;9.70;;;;;;;17.66;60.96;100497.13;7719150;32;37799;-85
2022/10/26 17:43:09;;;;;;;17.87;9.82;;;;;;;17.49;61.87;100500.41;7728147;32;38772;-84
2022/10/26 17:47:26;;;;;;;20.20;9.48;;;;;;;17.66;61.25;100510.91;7712287;32;39876;-84
2022/10/26 17:51:42;;;;;;;16.60;9.60;;;;;;;17.49;61.76;100516.97;7712419;32;38668;-87
2022/10/26 17:56:04;;;;;;;15.95;9.63;;;;;;;17.43;62.26;100518.97;7710858;32;36748;-84
2022/10/26 18:00:20;;;;;;;41.67;21.27;;;;;;;17.04;63.68;100522.03;7721396;32;39012;-83
2022/10/26 18:04:36;;;;;;;23.12;12.80;;;;;;;17.37;62.06;100519.38;7730482;32;39597;-83
2022/10/26 18:08:55;;;;;;;27.95;15.35;;;;;;;17.07;63.12;100518.69;7712019;32;37710;-83
2022/10/26 18:13:11;;;;;;;14.52;8.80;;;;;;;16.94;63.46;100527.72;7719126;32;36184;-83
2022/10/26 18:17:27;;;;;;;23.15;13.32;;;;;;;17.15;62.97;100539.25;7709812;32;40120;-84
2022/10/26 18:21:43;;;;;;;32.90;17.55;;;;;;;17.16;62.55;100530.69;7724320;32;40785;-85
2022/10/26 18:26:21;;;;;;;21.05;12.35;;;;;;;17.21;62.22;100535.28;7737613;32;38060;-83
2022/10/26 18:30:37;;;;;;;15.57;9.20;;;;;;;17.38;61.58;100537.53;7736536;32;37439;-83
2022/10/26 18:34:53;;;;;;;14.57;7.40;;;;;;;16.95;63.09;100540.34;7724439;32;40001;-83
2022/10/26 18:39:10;;;;;;;12.00;7.37;;;;;;;16.66;63.47;100541.22;7714741;32;40539;-84
2022/10/26 18:43:27;;;;;;;15.23;8.05;;;;;;;16.87;62.59;100541.84;7734197;32;37946;-83
2022/10/26 18:47:43;;;;;;;11.52;7.10;;;;;;;17.02;61.73;100551.81;7710708;32;37222;-83
2022/10/26 18:51:59;;;;;;;12.40;7.18;;;;;;;17.04;61.60;100555.09;7711152;32;39480;-83
2022/10/26 18:56:18;;;;;;;11.40;7.60;;;;;;;17.12;61.11;100557.19;7719846;32;40784;-82
2022/10/26 19:00:34;;;;;;;12.32;7.18;;;;;;;16.64;62.60;100569.09;7737321;32;37798;-83
2022/10/26 19:04:52;;;;;;;12.82;7.97;;;;;;;16.86;61.83;100564.97;7713046;32;37914;-83
2022/10/26 19:09:10;;;;;;;11.98;8.15;;;;;;;16.21;64.21;100577.25;7724755;32;39379;-83
2022/10/26 19:13:26;;;;;;;14.45;8.70;;;;;;;16.31;64.06;100592.81;7737729;32;40067;-83
2022/10/26 19:17:42;;;;;;;13.90;8.65;;;;;;;16.38;63.73;100596.03;7721693;32;38116;-83
2022/10/26 19:21:59;;;;;;;13.48;8.52;;;;;;;16.30;63.90;100610.47;7710530;32;36830;-83
2022/10/26 19:26:19;;;;;;;15.05;9.38;;;;;;;16.42;63.58;100619.13;7710636;32;39268;-83
2022/10/26 19:30:53;;;;;;;17.20;9.43;;;;;;;16.41;63.36;100625.72;7718793;32;40686;-84
2022/10/26 19:35:10;;;;;;;16.37;9.43;;;;;;;16.60;62.21;100617.56;7721360;32;39372;-84
2022/10/26 19:39:27;;;;;;;15.85;10.23;;;;;;;16.07;64.45;100620.28;7723157;32;36874;-85
2022/10/26 19:43:43;;;;;;;15.40;9.25;;;;;;;16.08;64.40;100627.44;7720254;32;37765;-82
2022/10/26 19:48:00;;;;;;;15.48;9.80;;;;;;;16.36;63.63;100634.03;7721617;32;39731;-81
2022/10/26 19:52:16;;;;;;;13.90;9.60;;;;;;;16.37;63.26;100641.19;7713426;32;37815;-84
2022/10/26 19:56:34;;;;;;;16.98;10.40;;;;;;;16.02;64.49;100654.13;7710521;32;36835;-83
2022/10/26 20:00:54;;;;;;;15.20;9.90;;;;;;;16.05;64.49;100659.06;7723734;32;39982;-84
2022/10/26 20:05:15;;;;;;;17.15;11.23;;;;;;;16.27;63.76;100657.78;7720970;32;41753;-85
2022/10/26 20:09:31;;;;;;;17.85;10.98;;;;;;;16.35;63.32;100665.44;7717552;32;38794;-85
2022/10/26 20:13:47;;;;;;;18.92;11.65;;;;;;;16.21;64.02;100667.19;7703534;32;37695;-85
2022/10/26 20:18:04;;;;;;;23.33;11.98;;;;;;;15.84;65.28;100663.09;7698717;32;39147;-85